createdAt,value
2022-08-27T00:01:22.205Z,18.60
2022-08-27T00:03:50.121Z,18.60
2022-08-27T00:06:18.560Z,18.60
2022-08-27T00:08:46.802Z,18.60
2022-08-27T00:11:14.415Z,18.50
2022-08-27T00:13:41.860Z,18.50
2022-08-27T00:16:10.809Z,18.50
2022-08-27T00:18:38.476Z,18.50
2022-08-27T00:21:06.917Z,18.50
2022-08-27T00:23:35.048Z,18.50
2022-08-27T00:26:02.863Z,18.50
2022-08-27T00:28:30.505Z,18.50
2022-08-27T00:30:58.060Z,18.50
2022-08-27T00:33:25.441Z,18.50
2022-08-27T00:35:53.063Z,18.50
2022-08-27T00:38:21.357Z,18.60
2022-08-27T00:40:48.779Z,18.60
2022-08-27T00:43:26.862Z,18.60
2022-08-27T00:45:56.183Z,18.70
2022-08-27T00:48:24.570Z,18.70
2022-08-27T00:50:52.923Z,18.70
2022-08-27T00:53:23.143Z,18.70
2022-08-27T00:56:16.325Z,18.70
2022-08-27T00:58:48.632Z,18.70
2022-08-27T01:01:18.035Z,18.70
2022-08-27T01:03:48.565Z,18.70
2022-08-27T01:06:16.606Z,18.70
2022-08-27T01:08:52.194Z,18.70
2022-08-27T01:11:20.147Z,18.70
2022-08-27T01:13:59.508Z,18.70
2022-08-27T01:16:32.502Z,18.70
2022-08-27T01:19:00.899Z,18.70
2022-08-27T01:21:53.680Z,18.70
2022-08-27T01:24:36.081Z,18.70
2022-08-27T01:27:04.863Z,18.70
2022-08-27T01:29:35.540Z,18.70
2022-08-27T01:32:16.487Z,18.70
2022-08-27T01:34:44.427Z,18.70
2022-08-27T01:37:12.428Z,18.70
2022-08-27T01:39:40.699Z,18.70
2022-08-27T01:42:41.532Z,18.70
2022-08-27T01:45:10.186Z,18.70
2022-08-27T01:47:37.618Z,18.70
2022-08-27T01:50:13.829Z,18.70
2022-08-27T01:52:41.165Z,18.70
2022-08-27T01:55:09.420Z,18.70
2022-08-27T01:57:36.745Z,18.70
2022-08-27T02:00:10.190Z,18.80
2022-08-27T02:02:39.558Z,18.80
2022-08-27T02:05:07.149Z,18.80
2022-08-27T02:07:34.494Z,18.80
2022-08-27T02:10:01.827Z,18.80
2022-08-27T02:12:29.173Z,18.90
2022-08-27T02:14:56.540Z,18.90
2022-08-27T02:17:23.873Z,18.90
2022-08-27T02:19:51.208Z,18.90
2022-08-27T02:22:19.079Z,18.90
2022-08-27T02:24:46.403Z,18.90
2022-08-27T02:27:14.119Z,18.90
2022-08-27T02:29:41.497Z,18.90
2022-08-27T02:32:22.942Z,18.90
2022-08-27T02:34:56.600Z,18.90
2022-08-27T02:37:23.948Z,18.90
2022-08-27T02:39:51.359Z,18.90
2022-08-27T02:42:18.700Z,19.00
2022-08-27T02:44:46.267Z,19.00
2022-08-27T02:47:14.317Z,19.00
2022-08-27T02:49:41.709Z,19.00
2022-08-27T02:52:09.168Z,19.00
2022-08-27T02:54:36.507Z,19.00
2022-08-27T02:57:03.948Z,19.00
2022-08-27T02:59:31.254Z,19.00
2022-08-27T03:01:58.634Z,19.00
2022-08-27T03:04:27.924Z,19.00
2022-08-27T03:06:55.836Z,19.00
2022-08-27T03:09:23.161Z,19.00
2022-08-27T03:11:50.533Z,18.90
2022-08-27T03:14:17.890Z,18.90
2022-08-27T03:16:45.214Z,18.90
2022-08-27T03:19:12.556Z,18.90
2022-08-27T03:21:39.895Z,18.90
2022-08-27T03:24:11.712Z,18.80
2022-08-27T03:26:42.168Z,18.80
2022-08-27T03:29:20.186Z,18.80
2022-08-27T03:31:47.611Z,18.80
2022-08-27T03:34:15.019Z,18.80
2022-08-27T03:36:48.943Z,18.80
2022-08-27T03:39:16.275Z,18.70
2022-08-27T03:41:54.635Z,18.80
2022-08-27T03:44:24.110Z,18.70
2022-08-27T03:46:52.182Z,18.70
2022-08-27T03:49:20.325Z,18.70
2022-08-27T03:51:49.200Z,18.70
2022-08-27T03:54:16.591Z,18.70
2022-08-27T03:56:43.974Z,18.70
2022-08-27T03:59:11.297Z,18.70
2022-08-27T04:01:39.049Z,18.70
2022-08-27T04:04:06.834Z,18.70
2022-08-27T04:06:35.229Z,18.70
2022-08-27T04:09:02.912Z,18.70
2022-08-27T04:11:30.226Z,18.70
2022-08-27T04:13:57.590Z,18.70
2022-08-27T04:16:25.861Z,18.70
2022-08-27T04:18:55.326Z,18.70
2022-08-27T04:21:23.214Z,18.60
2022-08-27T04:23:50.986Z,18.60
2022-08-27T04:26:20.767Z,18.70
2022-08-27T04:28:48.849Z,18.60
2022-08-27T04:31:17.022Z,18.60
2022-08-27T04:33:50.500Z,18.60
2022-08-27T04:36:18.950Z,18.60
2022-08-27T04:38:46.459Z,18.60
2022-08-27T04:41:19.877Z,18.60
2022-08-27T04:43:48.767Z,18.60
2022-08-27T04:46:26.568Z,18.60
2022-08-27T04:48:55.106Z,18.60
2022-08-27T04:51:22.459Z,18.70
2022-08-27T04:53:49.988Z,18.70
2022-08-27T04:56:18.499Z,18.60
2022-08-27T04:58:45.870Z,18.60
2022-08-27T05:01:17.356Z,18.60
2022-08-27T05:03:44.783Z,18.60
2022-08-27T05:06:12.303Z,18.70
2022-08-27T05:08:40.128Z,18.70
2022-08-27T05:11:09.555Z,18.70
2022-08-27T05:13:38.041Z,18.70
2022-08-27T05:16:07.505Z,18.70
2022-08-27T05:18:42.268Z,18.70
2022-08-27T05:21:20.311Z,18.70
2022-08-27T05:23:47.774Z,18.70
2022-08-27T05:26:15.527Z,18.80
2022-08-27T05:28:42.887Z,18.80
2022-08-27T05:31:11.327Z,18.80
2022-08-27T05:33:38.928Z,18.80
2022-08-27T05:36:06.537Z,18.80
2022-08-27T05:38:34.163Z,18.80
2022-08-27T05:41:06.840Z,18.80
2022-08-27T05:43:34.444Z,18.80
2022-08-27T05:46:05.257Z,18.80
2022-08-27T05:48:33.785Z,18.80
2022-08-27T05:51:10.814Z,18.90
2022-08-27T05:53:38.940Z,18.90
2022-08-27T05:56:12.229Z,18.90
2022-08-27T05:58:58.099Z,18.90
2022-08-27T06:01:27.720Z,18.90
2022-08-27T06:03:55.132Z,18.90
2022-08-27T06:06:22.874Z,18.90
2022-08-27T06:08:51.175Z,19.00
2022-08-27T06:11:21.958Z,19.00
2022-08-27T06:13:49.307Z,19.00
2022-08-27T06:16:17.897Z,19.00
2022-08-27T06:18:47.333Z,19.00
2022-08-27T06:21:15.487Z,19.00
2022-08-27T06:23:43.068Z,19.00
2022-08-27T06:26:11.831Z,19.10
2022-08-27T06:28:41.975Z,19.10
2022-08-27T06:31:12.021Z,19.10
2022-08-27T06:33:40.114Z,19.10
2022-08-27T06:36:09.529Z,19.20
2022-08-27T06:38:37.059Z,19.20
2022-08-27T06:41:05.508Z,19.20
2022-08-27T06:43:34.264Z,19.30
2022-08-27T06:46:06.048Z,19.30
2022-08-27T06:48:34.871Z,19.40
2022-08-27T06:51:12.453Z,19.40
2022-08-27T06:53:40.599Z,19.40
2022-08-27T06:56:08.851Z,19.40
2022-08-27T06:58:36.283Z,19.50
2022-08-27T07:01:12.993Z,19.50
2022-08-27T07:03:40.776Z,19.50
2022-08-27T07:06:08.303Z,19.50
2022-08-27T07:08:35.686Z,19.50
2022-08-27T07:11:03.074Z,19.50
2022-08-27T07:13:30.411Z,19.60
2022-08-27T07:15:57.921Z,19.60
2022-08-27T07:18:27.997Z,19.60
2022-08-27T07:20:55.779Z,19.60
2022-08-27T07:23:23.176Z,19.50
2022-08-27T07:25:50.488Z,19.60
2022-08-27T07:28:17.938Z,19.60
2022-08-27T07:30:45.385Z,19.50
2022-08-27T07:33:12.851Z,19.60
2022-08-27T07:35:40.345Z,19.60
2022-08-27T07:38:13.120Z,19.60
2022-08-27T07:40:40.521Z,19.60
2022-08-27T07:43:27.192Z,19.70
2022-08-27T07:45:56.377Z,19.70
2022-08-27T07:48:24.017Z,19.80
2022-08-27T07:50:52.648Z,19.80
2022-08-27T07:53:20.185Z,19.80
2022-08-27T07:55:47.702Z,19.90
2022-08-27T07:58:18.487Z,20.00
2022-08-27T08:00:46.083Z,20.00
2022-08-27T08:03:13.446Z,20.00
2022-08-27T08:05:44.024Z,20.00
2022-08-27T08:08:11.878Z,20.10
2022-08-27T08:10:40.619Z,20.10
2022-08-27T08:13:08.076Z,20.20
2022-08-27T08:15:35.930Z,20.30
2022-08-27T08:18:03.427Z,20.40
2022-08-27T08:20:56.409Z,20.40
2022-08-27T08:23:18.877Z,20.40
2022-08-27T08:25:46.184Z,20.50
2022-08-27T08:28:13.645Z,20.50
2022-08-27T08:30:43.581Z,20.50
2022-08-27T08:33:10.947Z,20.60
2022-08-27T08:35:41.038Z,20.50
2022-08-27T08:38:08.861Z,20.50
2022-08-27T08:40:37.652Z,20.50
2022-08-27T08:43:05.730Z,20.60
2022-08-27T08:45:34.788Z,20.60
2022-08-27T08:48:07.327Z,20.60
2022-08-27T08:50:44.670Z,20.60
2022-08-27T08:53:31.988Z,20.60
2022-08-27T08:56:02.157Z,20.60
2022-08-27T08:58:41.852Z,20.60
2022-08-27T09:01:09.614Z,20.70
2022-08-27T09:03:40.745Z,20.70
2022-08-27T09:06:09.189Z,20.70
2022-08-27T09:08:41.709Z,20.70
2022-08-27T09:11:29.058Z,20.70
2022-08-27T09:13:59.638Z,20.70
2022-08-27T09:16:27.238Z,20.70
2022-08-27T09:18:54.697Z,20.70
2022-08-27T09:21:34.181Z,20.70
2022-08-27T09:24:01.875Z,20.70
2022-08-27T09:26:30.327Z,20.80
2022-08-27T09:29:16.215Z,20.90
2022-08-27T09:31:45.782Z,20.90
2022-08-27T09:34:13.483Z,21.00
2022-08-27T09:37:07.510Z,21.00
2022-08-27T09:39:52.856Z,21.00
2022-08-27T09:42:36.576Z,21.00
2022-08-27T09:45:09.045Z,21.00
2022-08-27T09:48:02.643Z,21.00
2022-08-27T09:50:47.418Z,21.10
2022-08-27T09:53:25.359Z,21.10
2022-08-27T09:56:29.666Z,21.20
2022-08-27T09:59:03.212Z,21.30
2022-08-27T10:01:32.378Z,21.40
2022-08-27T10:04:07.339Z,21.40
2022-08-27T10:06:34.907Z,21.40
2022-08-27T10:09:32.974Z,21.40
2022-08-27T10:12:11.170Z,21.40
2022-08-27T10:14:43.893Z,21.50
2022-08-27T10:17:13.078Z,21.50
2022-08-27T10:20:11.515Z,21.60
2022-08-27T10:22:52.770Z,21.70
2022-08-27T10:25:23.526Z,21.70
2022-08-27T10:28:14.002Z,21.70
2022-08-27T10:30:54.270Z,21.80
2022-08-27T10:33:27.703Z,21.80
2022-08-27T10:36:03.889Z,21.80
2022-08-27T10:38:34.370Z,21.80
2022-08-27T10:41:34.679Z,21.80
2022-08-27T10:44:20.307Z,21.80
2022-08-27T10:47:03.013Z,21.80
2022-08-27T10:49:36.810Z,21.80
2022-08-27T10:52:18.591Z,21.90
2022-08-27T10:54:59.649Z,21.90
2022-08-27T10:58:03.828Z,21.90
2022-08-27T11:00:53.072Z,22.00
2022-08-27T11:03:34.235Z,22.00
2022-08-27T11:06:06.415Z,22.20
2022-08-27T11:08:41.387Z,22.30
2022-08-27T11:11:57.132Z,22.30
2022-08-27T11:14:02.139Z,22.30
2022-08-27T11:16:45.292Z,22.40
2022-08-27T11:19:17.827Z,22.40
2022-08-27T11:22:08.466Z,22.20
2022-08-27T11:24:49.191Z,22.20
2022-08-27T11:27:18.628Z,22.20
2022-08-27T11:29:49.796Z,22.30
2022-08-27T11:32:33.121Z,22.30
2022-08-27T11:35:02.228Z,22.50
2022-08-27T11:37:54.598Z,22.70
2022-08-27T11:40:49.349Z,22.70
2022-08-27T11:43:18.735Z,22.90
2022-08-27T11:45:55.640Z,23.00
2022-08-27T11:48:25.260Z,23.10
2022-08-27T11:51:02.495Z,23.10
2022-08-27T11:53:35.486Z,23.00
2022-08-27T11:56:38.747Z,23.00
2022-08-27T11:59:27.730Z,22.90
2022-08-27T12:01:57.279Z,22.90
2022-08-27T12:04:30.680Z,22.90
2022-08-27T12:07:18.868Z,22.90
2022-08-27T12:10:00.908Z,23.00
2022-08-27T12:13:06.308Z,23.00
2022-08-27T12:15:51.836Z,23.10
2022-08-27T12:18:18.993Z,23.00
2022-08-27T12:20:50.061Z,23.00
2022-08-27T12:23:40.613Z,22.90
2022-08-27T12:26:33.247Z,22.90
2022-08-27T12:29:31.854Z,22.90
2022-08-27T12:32:20.599Z,23.00
2022-08-27T12:35:09.315Z,23.10
2022-08-27T12:38:25.825Z,23.10
2022-08-27T12:40:57.695Z,23.20
2022-08-27T12:43:27.701Z,23.20
2022-08-27T12:46:08.890Z,23.30
2022-08-27T12:48:47.610Z,23.20
2022-08-27T12:51:25.917Z,23.20
2022-08-27T12:54:28.934Z,23.20
2022-08-27T12:57:44.187Z,23.10
2022-08-27T13:00:18.834Z,23.10
2022-08-27T13:03:01.299Z,23.30
2022-08-27T13:05:37.718Z,23.40
2022-08-27T13:08:05.629Z,23.60
2022-08-27T13:10:33.137Z,23.60
2022-08-27T13:13:05.399Z,23.60
2022-08-27T13:15:34.133Z,23.50
2022-08-27T13:18:03.195Z,23.50
2022-08-27T13:20:30.617Z,23.50
2022-08-27T13:22:57.969Z,23.50
2022-08-27T13:25:28.066Z,23.50
2022-08-27T13:27:56.830Z,23.50
2022-08-27T13:30:35.772Z,23.60
2022-08-27T13:33:05.356Z,23.60
2022-08-27T13:35:32.834Z,23.70
2022-08-27T13:38:00.488Z,23.70
2022-08-27T13:40:34.925Z,23.80
2022-08-27T13:43:07.786Z,23.80
2022-08-27T13:45:38.369Z,23.80
2022-08-27T13:48:05.782Z,23.70
2022-08-27T13:50:34.169Z,23.70
2022-08-27T13:53:30.105Z,23.60
2022-08-27T13:55:58.022Z,23.70
2022-08-27T13:58:30.720Z,23.70
2022-08-27T14:01:09.224Z,23.70
2022-08-27T14:03:49.422Z,23.80
2022-08-27T14:06:39.820Z,23.90
2022-08-27T14:09:25.446Z,23.80
2022-08-27T14:12:00.498Z,23.80
2022-08-27T14:14:27.935Z,23.80
2022-08-27T14:17:01.886Z,23.80
2022-08-27T14:19:36.063Z,23.90
2022-08-27T14:22:04.060Z,24.00
2022-08-27T14:24:31.398Z,24.00
2022-08-27T14:27:05.878Z,24.10
2022-08-27T14:29:33.224Z,24.10
2022-08-27T14:32:00.626Z,24.10
2022-08-27T14:34:28.582Z,24.10
2022-08-27T14:36:56.009Z,24.10
2022-08-27T14:39:26.600Z,24.00
2022-08-27T14:41:54.649Z,24.00
2022-08-27T14:44:22.236Z,24.00
2022-08-27T14:46:49.681Z,23.90
2022-08-27T14:49:22.168Z,24.00
2022-08-27T14:51:49.546Z,23.90
2022-08-27T14:54:16.855Z,23.90
2022-08-27T14:56:44.620Z,23.90
2022-08-27T14:59:11.965Z,23.90
2022-08-27T15:01:39.973Z,23.90
2022-08-27T15:04:07.611Z,24.00
2022-08-27T15:06:35.018Z,24.10
2022-08-27T15:09:02.425Z,24.20
2022-08-27T15:11:31.518Z,24.30
2022-08-27T15:13:59.198Z,24.40
2022-08-27T15:16:34.683Z,24.50
2022-08-27T15:19:02.432Z,24.50
2022-08-27T15:21:30.330Z,24.60
2022-08-27T15:24:03.244Z,24.60
2022-08-27T15:26:30.895Z,24.70
2022-08-27T15:28:59.929Z,24.60
2022-08-27T15:31:30.289Z,24.60
2022-08-27T15:33:57.687Z,24.50
2022-08-27T15:36:25.464Z,24.40
2022-08-27T15:38:54.453Z,24.40
2022-08-27T15:41:23.470Z,24.20
2022-08-27T15:43:53.511Z,24.20
2022-08-27T15:46:21.799Z,24.20
2022-08-27T15:48:49.288Z,24.20
2022-08-27T15:51:16.725Z,24.20
2022-08-27T15:53:44.118Z,24.20
2022-08-27T15:56:11.520Z,24.20
2022-08-27T15:58:41.182Z,24.10
2022-08-27T16:01:11.264Z,24.10
2022-08-27T16:03:38.894Z,24.00
2022-08-27T16:06:06.515Z,24.10
2022-08-27T16:08:33.918Z,24.10
2022-08-27T16:11:04.317Z,24.10
2022-08-27T16:13:31.952Z,24.10
2022-08-27T16:15:59.565Z,24.00
2022-08-27T16:18:28.518Z,23.90
2022-08-27T16:20:56.554Z,23.80
2022-08-27T16:23:25.368Z,23.80
2022-08-27T16:25:53.424Z,23.80
2022-08-27T16:28:20.819Z,23.60
2022-08-27T16:30:49.343Z,23.50
2022-08-27T16:33:16.726Z,23.40
2022-08-27T16:35:44.311Z,23.30
2022-08-27T16:38:12.267Z,23.20
2022-08-27T16:40:43.738Z,23.20
2022-08-27T16:43:16.238Z,23.20
2022-08-27T16:45:43.661Z,23.20
2022-08-27T16:48:46.217Z,23.10
2022-08-27T16:51:22.858Z,23.10
2022-08-27T16:53:50.867Z,23.10
2022-08-27T16:56:20.392Z,23.10
2022-08-27T16:58:48.649Z,23.00
2022-08-27T17:01:18.070Z,23.00
2022-08-27T17:04:08.046Z,22.90
2022-08-27T17:06:39.569Z,22.90
2022-08-27T17:09:07.270Z,22.80
2022-08-27T17:11:35.066Z,22.70
2022-08-27T17:14:03.164Z,22.70
2022-08-27T17:16:32.193Z,22.70
2022-08-27T17:18:59.879Z,22.60
2022-08-27T17:21:29.907Z,22.70
2022-08-27T17:23:59.359Z,22.60
2022-08-27T17:26:26.810Z,22.50
2022-08-27T17:28:54.184Z,22.40
2022-08-27T17:31:28.041Z,22.40
2022-08-27T17:33:59.022Z,22.30
2022-08-27T17:36:27.384Z,22.30
2022-08-27T17:38:55.238Z,22.30
2022-08-27T17:41:22.670Z,22.20
2022-08-27T17:43:50.075Z,22.20
2022-08-27T17:46:17.538Z,22.20
2022-08-27T17:48:44.970Z,22.10
2022-08-27T17:51:12.410Z,22.00
2022-08-27T17:53:48.301Z,22.00
2022-08-27T17:56:19.982Z,22.00
2022-08-27T17:58:47.961Z,21.90
2022-08-27T18:01:22.554Z,21.90
2022-08-27T18:03:56.430Z,21.80
2022-08-27T18:06:24.427Z,21.80
2022-08-27T18:08:51.783Z,21.70
2022-08-27T18:11:19.214Z,21.70
2022-08-27T18:13:48.087Z,21.60
2022-08-27T18:16:15.482Z,21.60
2022-08-27T18:18:42.876Z,21.60
2022-08-27T18:21:10.560Z,21.50
2022-08-27T18:23:38.264Z,21.50
2022-08-27T18:26:09.873Z,21.50
2022-08-27T18:28:37.380Z,21.40
2022-08-27T18:31:05.717Z,21.40
2022-08-27T18:33:34.630Z,21.40
2022-08-27T18:36:02.101Z,21.40
2022-08-27T18:38:29.513Z,21.40
2022-08-27T18:40:57.594Z,21.40
2022-08-27T18:43:29.737Z,21.30
2022-08-27T18:45:57.103Z,21.30
2022-08-27T18:48:24.539Z,21.30
2022-08-27T18:50:56.946Z,21.20
2022-08-27T18:53:25.706Z,21.20
2022-08-27T18:55:53.204Z,21.20
2022-08-27T18:58:20.794Z,21.20
2022-08-27T19:00:50.087Z,21.20
2022-08-27T19:03:23.071Z,21.20
2022-08-27T19:05:54.915Z,21.20
2022-08-27T19:08:24.222Z,21.20
2022-08-27T19:10:51.695Z,21.20
2022-08-27T19:13:19.046Z,21.10
2022-08-27T19:15:51.674Z,21.10
2022-08-27T19:18:19.020Z,21.10
2022-08-27T19:20:46.358Z,21.10
2022-08-27T19:23:13.755Z,21.00
2022-08-27T19:25:41.879Z,21.10
2022-08-27T19:28:09.195Z,21.00
2022-08-27T19:30:36.874Z,21.10
2022-08-27T19:33:04.255Z,21.10
2022-08-27T19:35:31.615Z,21.00
2022-08-27T19:37:58.946Z,21.00
2022-08-27T19:40:26.630Z,21.00
2022-08-27T19:42:53.992Z,21.00
2022-08-27T19:45:23.182Z,21.00
2022-08-27T19:47:52.278Z,20.90
2022-08-27T19:50:19.862Z,20.90
2022-08-27T19:52:48.131Z,20.80
2022-08-27T19:55:15.787Z,20.80
2022-08-27T19:57:43.885Z,20.80
2022-08-27T20:00:12.837Z,20.70
2022-08-27T20:02:40.521Z,20.70
2022-08-27T20:05:18.004Z,20.70
2022-08-27T20:07:50.814Z,20.60
2022-08-27T20:10:25.859Z,20.50
2022-08-27T20:13:03.312Z,20.40
2022-08-27T20:15:30.736Z,20.40
2022-08-27T20:17:59.407Z,20.30
2022-08-27T20:20:27.313Z,20.30
2022-08-27T20:22:55.829Z,20.30
2022-08-27T20:25:23.691Z,20.30
2022-08-27T20:27:51.183Z,20.30
2022-08-27T20:30:20.133Z,20.20
2022-08-27T20:32:47.449Z,20.20
2022-08-27T20:35:15.408Z,20.20
2022-08-27T20:37:42.914Z,20.20
2022-08-27T20:40:13.526Z,20.20
2022-08-27T20:42:40.928Z,20.10
2022-08-27T20:45:11.899Z,20.10
2022-08-27T20:47:40.574Z,20.00
2022-08-27T20:50:08.105Z,20.00
2022-08-27T20:52:36.365Z,19.90
2022-08-27T20:55:04.162Z,19.90
2022-08-27T20:57:31.535Z,19.80
2022-08-27T21:00:17.364Z,19.80
2022-08-27T21:02:44.700Z,19.70
2022-08-27T21:05:13.843Z,19.60
2022-08-27T21:07:42.299Z,19.60
2022-08-27T21:10:09.777Z,19.50
2022-08-27T21:12:37.201Z,19.50
2022-08-27T21:15:05.369Z,19.50
2022-08-27T21:17:32.736Z,19.40
2022-08-27T21:20:00.108Z,19.40
2022-08-27T21:22:27.513Z,19.40
2022-08-27T21:24:54.950Z,19.30
2022-08-27T21:27:22.363Z,19.30
2022-08-27T21:29:49.863Z,19.20
2022-08-27T21:32:17.266Z,19.20
2022-08-27T21:34:44.654Z,19.10
2022-08-27T21:37:13.607Z,19.10
2022-08-27T21:39:41.223Z,19.10
2022-08-27T21:42:09.159Z,19.00
2022-08-27T21:44:36.760Z,18.90
2022-08-27T21:47:04.418Z,18.80
2022-08-27T21:49:32.586Z,18.80
2022-08-27T21:52:03.174Z,18.80
2022-08-27T21:54:35.852Z,18.80
2022-08-27T21:57:04.571Z,18.70
2022-08-27T21:59:32.842Z,18.70
2022-08-27T22:02:01.307Z,18.60
2022-08-27T22:04:30.880Z,18.60
2022-08-27T22:06:59.620Z,18.60
2022-08-27T22:09:27.510Z,18.60
2022-08-27T22:11:54.892Z,18.60
2022-08-27T22:14:22.256Z,18.50
2022-08-27T22:16:50.149Z,18.50
2022-08-27T22:19:17.734Z,18.40
2022-08-27T22:21:45.095Z,18.40
2022-08-27T22:24:12.508Z,18.40
2022-08-27T22:26:39.891Z,18.30
2022-08-27T22:29:08.095Z,18.30
2022-08-27T22:31:35.721Z,18.30
2022-08-27T22:34:03.180Z,18.30
2022-08-27T22:36:30.579Z,18.30
2022-08-27T22:38:59.714Z,18.30
2022-08-27T22:41:32.564Z,18.30
2022-08-27T22:44:00.230Z,18.30
2022-08-27T22:46:27.706Z,18.30
2022-08-27T22:48:55.096Z,18.20
2022-08-27T22:51:22.516Z,18.30
2022-08-27T22:53:49.830Z,18.30
2022-08-27T22:56:17.208Z,18.30
2022-08-27T22:58:46.333Z,18.30
2022-08-27T23:01:19.113Z,18.20
2022-08-27T23:03:46.552Z,18.20
2022-08-27T23:06:13.930Z,18.20
2022-08-27T23:08:41.265Z,18.20
2022-08-27T23:11:08.639Z,18.20
2022-08-27T23:13:36.023Z,18.20
2022-08-27T23:16:03.663Z,18.20
2022-08-27T23:18:31.096Z,18.20
2022-08-27T23:20:58.514Z,18.20
2022-08-27T23:23:27.646Z,18.20
2022-08-27T23:26:15.762Z,18.20
2022-08-27T23:28:44.133Z,18.20
2022-08-27T23:31:11.777Z,18.10
2022-08-27T23:33:39.319Z,18.10
2022-08-27T23:36:06.932Z,18.10
2022-08-27T23:38:34.270Z,18.10
2022-08-27T23:41:01.618Z,18.10
2022-08-27T23:43:29.716Z,18.10
2022-08-27T23:45:57.355Z,18.10
2022-08-27T23:48:24.899Z,18.10
2022-08-27T23:50:52.222Z,18.10
2022-08-27T23:53:19.542Z,18.10
2022-08-27T23:55:46.907Z,18.10
2022-08-27T23:58:14.868Z,18.10
